首页
METAR-TAF:

METAR-TAF

机场 :

伊瓜苏, 阿根廷

纬度: 25-44S, 经度: 054-28W, 海拔: 270米

当前天气观测

该预报发布于59分钟前的18:00 UTC
风速5节,风向东转东北,在北转东北东转东南之间变化
温度 27°C
湿度 48%
气压 1019 hPa
能见度10公里或以上
1500米以下无云,无积雨云

METAR: SARI 241800Z 07005KT 030V110 CAVOK 27/15 Q1019

时间: 15:59 (18:59 UTC)

预报

该预报发布于1小时和59分钟前的17:00 UTC
预报有效从24日的 18点(UTC)到 25日的 18点(UTC)
风速5节,风向东北
能见度10公里或以上
1500米以下无云,无积雨云

TAF: SARI 241700Z 2418/2518 05005KT CAVOK TX27/2419Z TN14/2510Z

超过4000个机场的气象观测和天气预报(METAR&TAF报告)。

可查询的气象台以黄色和红色小点在地图上表示。

将鼠标移到小点上方,可查看气象台名称。

然后点击查看天气观测和预报。

如需切换地图:点击带黑十字的绿色按钮放大地图;点击带横线的绿色按钮缩小地图;或者点击绿色箭头查看邻近地区的地图。


METAR-TAF: